This is the latest recevied weather packets stored in our database for station/object DO8TBO-15. If no packets are shown the sender has not sent any weather packets the latest 1 day(s).
| Time | Temp. | Humidity | Pressure | Rain* | Wind** | Luminosity | Snow |
|---|---|---|---|---|---|---|---|
| 1778023544 | 12.78° C | 49% | 1006.5 hPa | 0 mm | 0 m/s | - | - |
| 1778022940 | 12.78° C | 45% | 1006.4 hPa | 0 mm | 0 m/s | - | - |
| 1778022337 | 12.78° C | 40% | 1006.4 hPa | 0 mm | 0.89 m/s, 180° | - | - |
| 1778021734 | 12.78° C | 34% | 1006.4 hPa | 0 mm | 0.45 m/s, 187° | - | - |
| 1778003137 | 13.33° C | - | 1005.6 hPa | 6.86 mm | 0.89 m/s, 1° | - | - |
| 1778002533 | 13.33° C | - | 1005.8 hPa | 6.86 mm | 0.45 m/s, 0° | - | - |
| 1778001958 | 13.89° C | - | 1006 hPa | 6.6 mm | 0.45 m/s, 313° | - | - |
| 1778001355 | 13.89° C | - | 1006.1 hPa | 6.35 mm | 1.79 m/s, 228° | - | - |
| 1778000751 | 14.44° C | - | 1006 hPa | 4.32 mm | 2.24 m/s, 180° | - | - |
| 1778000148 | 15° C | - | 1005.7 hPa | 3.05 mm | 2.24 m/s, 257° | - | - |
| 1777999543 | 15.56° C | - | 1005.6 hPa | 0.51 mm | 1.34 m/s, 237° | - | - |
| 1777998940 | 16.11° C | - | 1005.3 hPa | 0.25 mm | 0.89 m/s, 266° | - | - |
| 1777998336 | 16.67° C | - | 1004.9 hPa | 0.25 mm | 0.45 m/s, 275° | - | - |
| 1777997732 | 16.67° C | - | 1004.9 hPa | 0 mm | 0.45 m/s, 331° | - | - |
| 1777997128 | 17.22° C | - | 1005 hPa | 0 mm | 0.89 m/s, 45° | - | - |
| 1777995920 | 17.22° C | - | 1005 hPa | 0 mm | 0 m/s | - | - |
| 1777995317 | 17.78° C | - | 1005 hPa | 0 mm | 0.45 m/s, 75° | - | - |
| 1777994774 | 18.89° C | - | 1005.4 hPa | 0 mm | 0.89 m/s, 195° | - | - |
| 1777994170 | 20.56° C | - | 1005.1 hPa | 0 mm | 1.34 m/s, 187° | - | - |
| 1777993566 | 21.11° C | - | 1004.8 hPa | 0 mm | 0.89 m/s, 45° | - | - |
| 1777992963 | 21.67° C | - | 1004.8 hPa | 0 mm | 0.45 m/s, 47° | - | - |
| 1777992359 | 22.78° C | - | 1004.8 hPa | 0 mm | 0.89 m/s, 40° | - | - |
| 1777991755 | 23.33° C | - | 1004.9 hPa | 0 mm | 0.89 m/s, 44° | - | - |
| 1777991151 | 23.33° C | - | 1004.9 hPa | 0 mm | 0.45 m/s, 356° | - | - |
| 1777990547 | 23.89° C | - | 1005 hPa | 0 mm | 0.89 m/s, 331° | - | - |
* Rain latest hour (hover to see other rain measurements)
** Current wind speed in m/s (hover to see current wind gust speed)